Jamestown, NY

4:39 PM EST on December 12, 2019 (GMT -0500)
Chautauqua County-Jamestown

Weather History for KJHW - November, 2019

Change the Weather History Date:

Tuesday, November 12, 2019

  Actual Average Record
Temperature  
Mean Temperature 20 °F -  
Max Temperature 24 °F 44 °F 66 °F (2012)
Min Temperature 15 °F 31 °F 15 °F (2019)
Degree Days  
Heating Degree Days 46    
Moisture  
Dew Point 16 °F    
Average Humidity 85    
Maximum Humidity 96    
Minimum Humidity 73    
Precipitation  
Precipitation 0.02 in - - ()
Sea Level Pressure  
Sea Level Pressure 30.09 in    
Wind  
Wind Speed 10 mph (NNW)    
Max Wind Speed 18 mph    
Max Gust Speed 23 mph    
Visibility 2 miles    
Events Fog , Snow    
Averages and records for this station are not official NWS values.
T = Trace of Precipitation, MM = Missing Value Source: NWS Daily Summary

Daily Weather History Graph

Daily Weather History Graph

Search for Another Location

Airport or City:

Astronomy

Nov. 12, 2019 Rise Set
Actual Time 7:03 AM EST 4:58 PM EST
Civil Twilight 6:33 AM EST 5:28 PM EST
Nautical Twilight 5:59 AM EST 6:02 PM EST
Astronomical Twilight 5:26 AM EST 6:34 PM EST
Moon 5:25 PM EST 6:52 AM EST
Length of Visible Light 10h 54m
Length of Day
9h 55m
Full, 100% of the Moon is Illuminated
Nov 12
Full
Nov 19
Last Quarter
Nov 26
New
Dec 4
First Quarter
Dec 12
Full

Hourly Weather History & Observations

Time (EST) Temp. Windchill Dew Point Humidity Pressure Visibility Wind Dir Wind Speed Gust Speed Precip Events Conditions
12:28 AM 21.2 °F 8.3 °F 19.4 °F 93% 29.87 in 1.5 mi NNE 13.8 mph - 0.00 in Snow Light Snow
12:47 AM 21.2 °F 10.1 °F 19.4 °F 93% 29.87 in 1.8 mi North 10.4 mph - 0.00 in Snow Light Snow
12:56 AM 21.9 °F 10.4 °F 19.9 °F 92% 29.95 in 1.5 mi North 11.5 mph - 0.00 in Snow Light Snow
1:23 AM 21.2 °F 8.9 °F 19.4 °F 93% 29.88 in 1.8 mi North 12.7 mph - 0.01 in Snow Light Snow
1:49 AM 21.2 °F 9.5 °F 19.4 °F 93% 29.88 in 2.0 mi North 11.5 mph - 0.01 in Snow Light Snow
1:56 AM 21.9 °F 11.0 °F 19.9 °F 92% 29.96 in 1.8 mi North 10.4 mph - 0.01 in Snow Light Snow
2:15 AM 21.2 °F 9.5 °F 19.4 °F 93% 29.89 in 1.8 mi North 11.5 mph - 0.00 in Snow Light Snow
2:36 AM 21.2 °F 10.9 °F 19.4 °F 93% 29.90 in 1.8 mi North 9.2 mph - 0.00 in Snow Light Snow
2:56 AM 21.9 °F 12.5 °F 19.9 °F 92% 29.99 in 1.5 mi North 8.1 mph - 0.00 in Snow Light Snow
3:08 AM 21.2 °F 11.7 °F 19.4 °F 93% 29.91 in 3.0 mi North 8.1 mph - 0.00 in Snow Light Snow
3:26 AM 21.2 °F 11.7 °F 19.4 °F 93% 29.92 in 2.0 mi North 8.1 mph - 0.00 in Snow Light Snow
4:56 AM 21.0 °F 11.4 °F 19.9 °F 96% 30.03 in 5.0 mi North 8.1 mph - 0.00 in Snow Light Snow
5:09 AM 21.2 °F 13.6 °F 19.4 °F 93% 29.94 in 4.0 mi North 5.8 mph - 0.00 in Snow Light Snow
5:56 AM 21.0 °F 13.4 °F 19.9 °F 96% 30.04 in 4.0 mi North 5.8 mph - 0.00 in Snow Light Snow
6:08 AM 21.2 °F 13.6 °F 19.4 °F 93% 29.96 in 3.0 mi North 5.8 mph - 0.00 in Snow Light Snow
6:20 AM 21.2 °F 12.6 °F 19.4 °F 93% 29.96 in 2.5 mi North 6.9 mph - 0.00 in Snow Light Snow
6:37 AM 21.2 °F 12.6 °F 19.4 °F 93% 29.97 in 2.0 mi North 6.9 mph - 0.00 in Snow Light Snow
6:53 AM 21.2 °F 12.6 °F 19.4 °F 93% 29.98 in 1.8 mi North 6.9 mph - 0.00 in Snow Light Snow
6:56 AM 21.0 °F 11.4 °F 19.9 °F 96% 30.07 in 2.0 mi North 8.1 mph - 0.00 in Snow Light Snow
7:07 AM 21.2 °F 11.7 °F 19.4 °F 93% 29.98 in 1.2 mi North 8.1 mph - 0.00 in Snow Light Snow
7:25 AM 21.2 °F 11.7 °F 19.4 °F 93% 29.99 in 1.0 mi North 8.1 mph - 0.00 in Snow Light Snow
7:38 AM 21.2 °F 12.6 °F 19.4 °F 93% 30.00 in 0.8 mi North 6.9 mph - 0.00 in Snow Light Snow
7:56 AM 21.0 °F 8.1 °F 19.9 °F 96% 30.10 in 1.2 mi North 13.8 mph 17.3 mph 0.00 in Snow Light Snow
8:12 AM 21.2 °F 9.5 °F 19.4 °F 93% 30.02 in 1.0 mi North 11.5 mph - 0.00 in Snow Light Snow
8:28 AM 21.2 °F 9.5 °F 19.4 °F 93% 30.02 in 0.8 mi North 11.5 mph - 0.00 in Snow Light Snow
8:56 AM 21.0 °F 7.6 °F 19.0 °F 92% 30.12 in 1.0 mi North 15.0 mph - 0.00 in Snow Light Snow
9:14 AM 21.2 °F 9.5 °F 19.4 °F 93% 30.03 in 1.2 mi North 11.5 mph 19.6 mph 0.00 in Snow Light Snow
9:21 AM 21.2 °F 9.5 °F 19.4 °F 93% 30.04 in 1.0 mi North 11.5 mph - 0.00 in Snow Light Snow
9:30 AM 21.2 °F 10.1 °F 19.4 °F 93% 30.04 in 1.5 mi North 10.4 mph - 0.00 in Snow Light Snow
9:38 AM 21.2 °F 8.9 °F 19.4 °F 93% 30.04 in 2.5 mi North 12.7 mph - 0.00 in Snow Light Snow
9:56 AM 21.9 °F 11.0 °F 19.0 °F 89% 30.14 in 2.5 mi North 10.4 mph - 0.00 in Snow Light Snow
9:58 AM 21.2 °F 9.5 °F 19.4 °F 93% 30.05 in 3.0 mi NNW 11.5 mph - 0.00 in Snow Light Snow
10:01 AM 21.2 °F 10.9 °F 19.4 °F 93% 30.05 in 2.5 mi North 9.2 mph 16.1 mph 0.00 in Snow Light Snow
10:10 AM 23.0 °F 12.4 °F 19.4 °F 86% 30.05 in 1.2 mi NNW 10.4 mph - 0.00 in Snow Light Snow
10:30 AM 23.0 °F 12.4 °F 19.4 °F 86% 30.05 in 0.8 mi North 10.4 mph - 0.00 in Snow Light Snow
10:39 AM 21.2 °F 10.1 °F 17.6 °F 86% 30.05 in 0.5 mi North 10.4 mph 17.3 mph 0.00 in Fog , Snow Light Snow
10:44 AM 21.2 °F 10.1 °F 17.6 °F 86% 30.05 in 0.8 mi North 10.4 mph - 0.00 in Snow Light Snow
10:46 AM 21.2 °F 10.9 °F 17.6 °F 86% 30.05 in 1.2 mi NNW 9.2 mph - 0.00 in Snow Light Snow
10:51 AM 23.0 °F 13.1 °F 19.4 °F 86% 30.05 in 2.0 mi North 9.2 mph - 0.00 in Snow Light Snow
10:56 AM 23.0 °F 10.6 °F 19.0 °F 85% 30.14 in 2.5 mi North 13.8 mph 18.4 mph 0.00 in Snow Light Snow
11:11 AM 21.2 °F 8.3 °F 17.6 °F 86% 30.05 in 4.0 mi NNW 13.8 mph - 0.00 in Snow Light Snow
11:23 AM 23.0 °F 12.4 °F 19.4 °F 86% 30.05 in 4.0 mi North 10.4 mph - 0.00 in Snow Light Snow
11:36 AM 24.8 °F 14.6 °F 17.6 °F 74% 30.06 in 1.8 mi North 10.4 mph - 0.00 in Snow Light Snow
11:52 AM 23.0 °F 13.1 °F 17.6 °F 80% 30.06 in 3.0 mi North 9.2 mph - 0.00 in Snow Light Snow
11:54 AM 23.0 °F 11.7 °F 17.6 °F 80% 30.06 in 1.8 mi North 11.5 mph - 0.00 in Snow Light Snow
11:56 AM 23.0 °F 11.7 °F 18.0 °F 81% 30.15 in 1.2 mi North 11.5 mph - 0.00 in Snow Light Snow
11:59 AM 23.0 °F 11.7 °F 17.6 °F 80% 30.06 in 0.8 mi North 11.5 mph - 0.00 in Snow Light Snow
12:04 PM 23.0 °F 13.1 °F 17.6 °F 80% 30.06 in 0.5 mi North 9.2 mph - 0.00 in Snow Snow
12:08 PM 21.2 °F 10.1 °F 17.6 °F 86% 30.06 in 0.8 mi North 10.4 mph - 0.00 in Snow Light Snow
12:15 PM 23.0 °F 13.1 °F 17.6 °F 80% 30.06 in 0.5 mi North 9.2 mph - 0.00 in Snow Snow
12:25 PM 23.0 °F 11.1 °F 17.6 °F 80% 30.06 in 0.8 mi North 12.7 mph - 0.00 in Snow Light Snow
12:30 PM 21.2 °F 9.5 °F 17.6 °F 86% 30.06 in 1.2 mi NNW 11.5 mph 19.6 mph 0.00 in Snow Light Snow
12:42 PM 21.2 °F 7.8 °F 15.8 °F 80% 30.06 in 2.0 mi North 15.0 mph 20.7 mph 0.00 in Snow Light Snow
12:56 PM 21.9 °F 9.2 °F 18.0 °F 85% 30.16 in 2.5 mi NNW 13.8 mph - 0.00 in Snow Light Snow
1:03 PM 21.2 °F 8.3 °F 17.6 °F 86% 30.07 in 3.0 mi NNW 13.8 mph - 0.00 in Snow Light Snow
1:14 PM 21.2 °F 8.9 °F 15.8 °F 80% 30.07 in 6.0 mi NNW 12.7 mph - 0.00 in Snow Light Snow
1:23 PM 21.2 °F 10.1 °F 15.8 °F 80% 30.07 in 4.0 mi North 10.4 mph - 0.00 in Snow Light Snow
1:38 PM 21.2 °F 8.9 °F 17.6 °F 86% 30.08 in 1.8 mi North 12.7 mph - 0.00 in Snow Light Snow
1:42 PM 21.2 °F 8.9 °F 15.8 °F 80% 30.09 in 0.8 mi North 12.7 mph - 0.00 in Snow Light Snow
1:50 PM 21.2 °F 8.9 °F 15.8 °F 80% 30.09 in 1.2 mi North 12.7 mph - 0.00 in Snow Light Snow
1:56 PM 21.0 °F 9.9 °F 16.0 °F 81% 30.19 in 1.0 mi North 10.4 mph - 0.00 in Snow Light Snow
1:59 PM 21.2 °F 10.1 °F 17.6 °F 86% 30.09 in 1.2 mi North 10.4 mph - 0.00 in Snow Light Snow
2:04 PM 21.2 °F 10.1 °F 17.6 °F 86% 30.09 in 3.0 mi North 10.4 mph - 0.00 in Snow Light Snow
2:16 PM 21.2 °F 9.5 °F 15.8 °F 80% 30.09 in 1.5 mi North 11.5 mph 17.3 mph 0.00 in Snow Light Snow
2:25 PM 21.2 °F 11.7 °F 15.8 °F 80% 30.10 in 0.8 mi North 8.1 mph 17.3 mph 0.00 in Snow Light Snow
2:29 PM 19.4 °F 10.4 °F 15.8 °F 86% 30.10 in 1.5 mi North 6.9 mph - 0.00 in Snow Light Snow
2:34 PM 21.2 °F 11.7 °F 15.8 °F 80% 30.10 in 4.0 mi North 8.1 mph - 0.00 in Snow Light Snow
2:47 PM 21.2 °F 10.9 °F 15.8 °F 80% 30.10 in 8.0 mi NNW 9.2 mph - 0.00 in Snow Light Snow
2:56 PM 21.0 °F 9.9 °F 14.0 °F 74% 30.20 in 8.0 mi NNW 10.4 mph - 0.00 in Snow Light Snow
3:03 PM 19.4 °F 8.6 °F 14.0 °F 80% 30.11 in 2.0 mi North 9.2 mph - 0.00 in Snow Light Snow
3:10 PM 19.4 °F 9.5 °F 12.2 °F 74% 30.11 in 1.5 mi NNW 8.1 mph - 0.00 in Snow Light Snow
3:14 PM 19.4 °F 10.4 °F 14.0 °F 80% 30.11 in 3.0 mi North 6.9 mph - 0.00 in Snow Light Snow
3:33 PM 19.4 °F 11.5 °F 14.0 °F 80% 30.11 in 1.8 mi North 5.8 mph - 0.00 in Snow Light Snow
3:45 PM 19.4 °F 11.5 °F 14.0 °F 80% 30.11 in 3.0 mi North 5.8 mph - 0.00 in Snow Light Snow
3:56 PM 19.0 °F 12.3 °F 14.0 °F 81% 30.22 in 7.0 mi North 4.6 mph - 0.00 in Snow Light Snow
4:15 PM 17.6 °F 8.2 °F 12.2 °F 79% 30.12 in 1.8 mi NNW 6.9 mph - 0.00 in Snow Light Snow
4:19 PM 17.6 °F 8.2 °F 12.2 °F 79% 30.12 in 0.8 mi NNW 6.9 mph - 0.00 in Snow Light Snow
4:23 PM 17.6 °F 10.7 °F 12.2 °F 79% 30.12 in 0.5 mi North 4.6 mph - 0.00 in Snow Snow
4:26 PM 17.6 °F 10.7 °F 12.2 °F 79% 30.12 in 0.8 mi North 4.6 mph - 0.00 in Snow Light Snow
4:30 PM 17.6 °F 10.7 °F 12.2 °F 79% 30.12 in 1.5 mi NNE 4.6 mph - 0.00 in Snow Light Snow
4:33 PM 17.6 °F 12.3 °F 12.2 °F 79% 30.12 in 2.5 mi NNE 3.5 mph - 0.00 in Snow Light Snow
4:40 PM 17.6 °F - 12.2 °F 79% 30.12 in 5.0 mi Calm Calm - 0.00 in Snow Light Snow
4:48 PM 17.6 °F - 12.2 °F 79% 30.12 in 1.0 mi Calm Calm - 0.00 in Snow Light Snow
4:56 PM 17.1 °F 11.7 °F 12.9 °F 84% 30.23 in 2.5 mi Variable 3.5 mph - 0.01 in Snow Light Snow
4:59 PM 17.6 °F 9.3 °F 12.2 °F 79% 30.12 in 5.0 mi NW 5.8 mph - 0.00 in Snow Light Snow
5:42 PM 17.6 °F 5.7 °F 12.2 °F 79% 30.13 in 8.0 mi NW 10.4 mph - 0.00 in Snow Light Snow
5:56 PM 17.1 °F 1.0 °F 12.0 °F 81% 30.24 in 4.0 mi NW 18.4 mph 23.0 mph 0.00 in Snow Light Snow
6:02 PM 17.6 °F 5.0 °F 12.2 °F 79% 30.14 in 2.5 mi NW 11.5 mph 23.0 mph 0.00 in Snow Light Snow
6:05 PM 17.6 °F 5.0 °F 12.2 °F 79% 30.14 in 3.0 mi NW 11.5 mph 21.9 mph 0.00 in Snow Light Snow
6:19 PM 17.6 °F 3.7 °F 10.4 °F 73% 30.14 in 5.0 mi NW 13.8 mph 23.0 mph 0.00 in Snow Light Snow
6:30 PM 17.6 °F 5.7 °F 10.4 °F 73% 30.15 in 8.0 mi NW 10.4 mph 21.9 mph 0.00 in Snow Light Snow
6:43 PM 17.6 °F 5.7 °F 10.4 °F 73% 30.15 in 6.0 mi NW 10.4 mph - 0.00 in Snow Light Snow
6:54 PM 17.6 °F 5.7 °F 10.4 °F 73% 30.16 in 9.0 mi NW 10.4 mph - 0.00 in Snow Light Snow
6:56 PM 17.1 °F 3.6 °F 10.0 °F 74% 30.26 in 9.0 mi NW 12.7 mph - 0.00 in Snow Light Snow
7:56 PM 17.1 °F 5.0 °F 12.0 °F 81% 30.27 in 1.8 mi NW 10.4 mph - 0.00 in Snow Light Snow
8:13 PM 17.6 °F 4.3 °F 12.2 °F 79% 30.17 in 2.5 mi NNW 12.7 mph 16.1 mph 0.00 in Snow Light Snow
8:23 PM 17.6 °F 5.0 °F 12.2 °F 79% 30.18 in 1.5 mi NNW 11.5 mph - 0.00 in Snow Light Snow
8:38 PM 17.6 °F 6.4 °F 12.2 °F 79% 30.18 in 1.2 mi NW 9.2 mph - 0.00 in Snow Light Snow
8:56 PM 17.1 °F 5.8 °F 12.9 °F 84% 30.28 in 1.2 mi NW 9.2 mph - 0.00 in Snow Light Snow
9:04 PM 17.6 °F 5.7 °F 14.0 °F 86% 30.18 in 0.5 mi NW 10.4 mph - 0.00 in Fog , Snow Snow
9:08 PM 17.6 °F 5.7 °F 14.0 °F 86% 30.18 in 0.5 mi NW 10.4 mph - 0.00 in Fog , Snow Snow
9:13 PM 17.6 °F 9.3 °F 14.0 °F 86% 30.19 in 0.5 mi NW 5.8 mph - 0.00 in Fog , Snow Snow
9:16 PM 17.6 °F 6.4 °F 14.0 °F 86% 30.18 in 0.8 mi NW 9.2 mph - 0.00 in Snow Light Snow
9:18 PM 17.6 °F 5.7 °F 14.0 °F 86% 30.18 in 1.0 mi NW 10.4 mph - 0.00 in Snow Light Snow
9:23 PM 17.6 °F 6.4 °F 14.0 °F 86% 30.18 in 2.0 mi NW 9.2 mph - 0.00 in Snow Light Snow
9:30 PM 17.6 °F 8.2 °F 14.0 °F 86% 30.18 in 1.8 mi NW 6.9 mph - 0.00 in Snow Light Snow
9:48 PM 17.6 °F 7.3 °F 14.0 °F 86% 30.19 in 2.0 mi WNW 8.1 mph - 0.00 in Snow Light Snow
9:56 PM 17.1 °F 4.3 °F 14.0 °F 88% 30.28 in 1.2 mi NW 11.5 mph - 0.00 in Snow Light Snow
10:10 PM 17.6 °F 5.0 °F 14.0 °F 86% 30.19 in 1.0 mi NW 11.5 mph - 0.00 in Snow Light Snow
10:18 PM 17.6 °F 6.4 °F 14.0 °F 86% 30.19 in 1.2 mi NNW 9.2 mph - 0.00 in Snow Light Snow
10:29 PM 17.6 °F 6.4 °F 14.0 °F 86% 30.19 in 4.0 mi NW 9.2 mph - 0.00 in Snow Light Snow
10:46 PM 15.8 °F 4.2 °F 12.2 °F 86% 30.18 in 9.0 mi West 9.2 mph - 0.00 in Snow Light Snow
10:56 PM 16.0 °F 6.3 °F 12.0 °F 84% 30.29 in 9.0 mi West 6.9 mph - 0.00 in   Mostly Cloudy
11:56 PM 16.0 °F 2.9 °F 10.9 °F 81% 30.28 in 7.0 mi NNW 11.5 mph - 0.00 in Snow Light Snow